sensor_id;sensor_type;location;lat;lon;timestamp;pressure;altitude;pressure_sealevel;temperature;humidity
43820;BME280;67762;52.476;6.046;2023-04-05T00:01:54;102553.16;;;1.16;67.36
43820;BME280;67762;52.476;6.046;2023-04-05T00:04:21;102546.47;;;1.08;67.52
43820;BME280;67762;52.476;6.046;2023-04-05T00:06:48;102546.78;;;1.00;67.73
43820;BME280;67762;52.476;6.046;2023-04-05T00:09:18;102546.97;;;0.96;68.02
43820;BME280;67762;52.476;6.046;2023-04-05T00:11:47;102548.84;;;0.92;68.07
43820;BME280;67762;52.476;6.046;2023-04-05T00:14:13;102544.69;;;0.87;68.24
43820;BME280;67762;52.476;6.046;2023-04-05T00:16:39;102543.00;;;0.86;68.40
43820;BME280;67762;52.476;6.046;2023-04-05T00:19:05;102535.13;;;0.86;68.58
43820;BME280;67762;52.476;6.046;2023-04-05T00:21:30;102533.59;;;0.80;68.62
43820;BME280;67762;52.476;6.046;2023-04-05T00:23:58;102532.84;;;0.77;68.77
43820;BME280;67762;52.476;6.046;2023-04-05T00:26:24;102533.03;;;0.72;69.23
43820;BME280;67762;52.476;6.046;2023-04-05T00:28:54;102525.38;;;0.66;68.93
43820;BME280;67762;52.476;6.046;2023-04-05T00:31:20;102533.50;;;0.60;69.05
43820;BME280;67762;52.476;6.046;2023-04-05T00:33:46;102522.53;;;0.49;69.54
43820;BME280;67762;52.476;6.046;2023-04-05T00:38:39;102520.94;;;0.45;69.69
43820;BME280;67762;52.476;6.046;2023-04-05T00:41:05;102516.72;;;0.41;69.79
43820;BME280;67762;52.476;6.046;2023-04-05T00:43:31;102514.25;;;0.36;70.19
43820;BME280;67762;52.476;6.046;2023-04-05T00:45:57;102519.66;;;0.33;70.39
43820;BME280;67762;52.476;6.046;2023-04-05T00:48:24;102510.09;;;0.31;70.56
43820;BME280;67762;52.476;6.046;2023-04-05T00:50:51;102512.88;;;0.28;70.42
43820;BME280;67762;52.476;6.046;2023-04-05T00:53:18;102513.88;;;0.24;70.71
43820;BME280;67762;52.476;6.046;2023-04-05T00:55:45;102510.69;;;0.16;70.73
43820;BME280;67762;52.476;6.046;2023-04-05T00:58:13;102509.06;;;0.12;71.20
43820;BME280;67762;52.476;6.046;2023-04-05T01:00:39;102510.03;;;0.09;71.17
43820;BME280;67762;52.476;6.046;2023-04-05T01:03:06;102513.59;;;0.08;70.94
43820;BME280;67762;52.476;6.046;2023-04-05T01:05:39;102512.78;;;0.06;71.31
43820;BME280;67762;52.476;6.046;2023-04-05T01:10:44;102512.09;;;0.01;71.23
43820;BME280;67762;52.476;6.046;2023-04-05T01:13:11;102510.66;;;-0.08;71.31
43820;BME280;67762;52.476;6.046;2023-04-05T01:15:37;102504.72;;;-0.13;71.04
43820;BME280;67762;52.476;6.046;2023-04-05T01:18:03;102504.84;;;-0.16;71.19
43820;BME280;67762;52.476;6.046;2023-04-05T01:20:33;102503.19;;;-0.18;71.96
43820;BME280;67762;52.476;6.046;2023-04-05T01:23:15;102496.31;;;-0.22;71.83
43820;BME280;67762;52.476;6.046;2023-04-05T01:31:50;102494.56;;;-0.46;72.35
43820;BME280;67762;52.476;6.046;2023-04-05T01:36:57;102498.13;;;-0.47;72.05
43820;BME280;67762;52.476;6.046;2023-04-05T01:39:27;102485.81;;;-0.45;72.47
43820;BME280;67762;52.476;6.046;2023-04-05T01:41:58;102484.03;;;-0.45;72.80
43820;BME280;67762;52.476;6.046;2023-04-05T01:44:27;102485.84;;;-0.47;72.58
43820;BME280;67762;52.476;6.046;2023-04-05T01:46:54;102486.88;;;-0.51;72.95
43820;BME280;67762;52.476;6.046;2023-04-05T01:49:21;102486.06;;;-0.53;72.61
43820;BME280;67762;52.476;6.046;2023-04-05T01:51:47;102486.97;;;-0.54;72.64
43820;BME280;67762;52.476;6.046;2023-04-05T01:54:13;102480.06;;;-0.56;72.59
43820;BME280;67762;52.476;6.046;2023-04-05T01:56:39;102476.78;;;-0.63;72.73
43820;BME280;67762;52.476;6.046;2023-04-05T01:59:05;102478.66;;;-0.67;73.01
43820;BME280;67762;52.476;6.046;2023-04-05T02:01:30;102481.41;;;-0.70;73.45
43820;BME280;67762;52.476;6.046;2023-04-05T02:03:56;102471.84;;;-0.72;73.49
43820;BME280;67762;52.476;6.046;2023-04-05T02:06:24;102479.88;;;-0.77;73.18
43820;BME280;67762;52.476;6.046;2023-04-05T02:08:51;102471.13;;;-0.76;73.52
43820;BME280;67762;52.476;6.046;2023-04-05T02:11:16;102465.91;;;-0.77;73.49
43820;BME280;67762;52.476;6.046;2023-04-05T02:13:43;102460.75;;;-0.79;73.51
43820;BME280;67762;52.476;6.046;2023-04-05T02:16:09;102468.81;;;-0.85;73.73
43820;BME280;67762;52.476;6.046;2023-04-05T02:18:35;102465.44;;;-0.88;73.66
43820;BME280;67762;52.476;6.046;2023-04-05T02:21:05;102463.84;;;-0.92;73.56
43820;BME280;67762;52.476;6.046;2023-04-05T02:23:33;102463.34;;;-1.03;74.02
43820;BME280;67762;52.476;6.046;2023-04-05T02:25:59;102465.25;;;-1.08;74.29
43820;BME280;67762;52.476;6.046;2023-04-05T02:28:29;102461.78;;;-1.09;74.26
43820;BME280;67762;52.476;6.046;2023-04-05T02:30:54;102459.16;;;-1.09;73.89
43820;BME280;67762;52.476;6.046;2023-04-05T02:33:21;102461.09;;;-1.15;74.35
43820;BME280;67762;52.476;6.046;2023-04-05T02:35:49;102461.25;;;-1.20;74.56
43820;BME280;67762;52.476;6.046;2023-04-05T02:38:18;102460.44;;;-1.22;74.66
43820;BME280;67762;52.476;6.046;2023-04-05T02:40:47;102448.25;;;-1.23;74.82
43820;BME280;67762;52.476;6.046;2023-04-05T02:43:14;102448.28;;;-1.25;74.75
43820;BME280;67762;52.476;6.046;2023-04-05T02:45:41;102446.69;;;-1.29;74.93
43820;BME280;67762;52.476;6.046;2023-04-05T02:48:07;102446.78;;;-1.32;75.10
43820;BME280;67762;52.476;6.046;2023-04-05T02:50:36;102450.22;;;-1.30;74.73
43820;BME280;67762;52.476;6.046;2023-04-05T02:53:03;102450.03;;;-1.24;75.25
43820;BME280;67762;52.476;6.046;2023-04-05T02:55:29;102445.47;;;-1.19;75.02
43820;BME280;67762;52.476;6.046;2023-04-05T02:58:00;102445.44;;;-1.17;75.74
43820;BME280;67762;52.476;6.046;2023-04-05T03:00:33;102443.66;;;-1.17;75.19
43820;BME280;67762;52.476;6.046;2023-04-05T03:03:44;102441.03;;;-1.17;75.32
43820;BME280;67762;52.476;6.046;2023-04-05T03:07:00;102443.56;;;-1.13;75.40
43820;BME280;67762;52.476;6.046;2023-04-05T03:09:36;102444.50;;;-1.14;75.31
43820;BME280;67762;52.476;6.046;2023-04-05T03:12:06;102440.31;;;-1.20;75.11
43820;BME280;67762;52.476;6.046;2023-04-05T03:14:37;102441.31;;;-1.24;75.45
43820;BME280;67762;52.476;6.046;2023-04-05T03:17:04;102432.66;;;-1.26;75.48
43820;BME280;67762;52.476;6.046;2023-04-05T03:19:37;102439.63;;;-1.27;75.14
43820;BME280;67762;52.476;6.046;2023-04-05T03:22:12;102436.13;;;-1.26;75.28
43820;BME280;67762;52.476;6.046;2023-04-05T03:24:38;102429.25;;;-1.30;75.38
43820;BME280;67762;52.476;6.046;2023-04-05T03:27:06;102434.66;;;-1.34;75.40
43820;BME280;67762;52.476;6.046;2023-04-05T03:29:41;102427.78;;;-1.38;75.99
43820;BME280;67762;52.476;6.046;2023-04-05T03:32:12;102427.06;;;-1.42;75.34
43820;BME280;67762;52.476;6.046;2023-04-05T03:34:44;102429.63;;;-1.40;75.62
43820;BME280;67762;52.476;6.046;2023-04-05T03:37:12;102429.78;;;-1.45;75.70
43820;BME280;67762;52.476;6.046;2023-04-05T03:39:57;102422.13;;;-1.52;75.70
43820;BME280;67762;52.476;6.046;2023-04-05T03:42:23;102431.91;;;-1.57;75.53
43820;BME280;67762;52.476;6.046;2023-04-05T03:44:51;102411.91;;;-1.60;76.46
43820;BME280;67762;52.476;6.046;2023-04-05T03:47:18;102415.44;;;-1.61;76.22
43820;BME280;67762;52.476;6.046;2023-04-05T03:49:44;102416.34;;;-1.62;76.42
43820;BME280;67762;52.476;6.046;2023-04-05T03:52:10;102419.78;;;-1.60;76.29
43820;BME280;67762;52.476;6.046;2023-04-05T03:54:41;102419.78;;;-1.60;76.06
43820;BME280;67762;52.476;6.046;2023-04-05T03:57:11;102428.47;;;-1.59;76.43
43820;BME280;67762;52.476;6.046;2023-04-05T03:59:39;102423.34;;;-1.62;76.37
43820;BME280;67762;52.476;6.046;2023-04-05T04:02:06;102423.50;;;-1.67;76.88
43820;BME280;67762;52.476;6.046;2023-04-05T04:04:32;102406.22;;;-1.72;76.82
43820;BME280;67762;52.476;6.046;2023-04-05T04:06:58;102419.31;;;-1.72;76.85
43820;BME280;67762;52.476;6.046;2023-04-05T04:09:26;102420.25;;;-1.75;76.84
43820;BME280;67762;52.476;6.046;2023-04-05T04:11:56;102417.66;;;-1.75;76.64
43820;BME280;67762;52.476;6.046;2023-04-05T04:14:23;102417.75;;;-1.78;76.99
43820;BME280;67762;52.476;6.046;2023-04-05T04:17:08;102415.22;;;-1.81;77.10
43820;BME280;67762;52.476;6.046;2023-04-05T04:19:57;102416.09;;;-1.82;76.88
43820;BME280;67762;52.476;6.046;2023-04-05T04:22:44;102410.94;;;-1.84;77.29
43820;BME280;67762;52.476;6.046;2023-04-05T04:29:27;102413.66;;;-1.88;77.54
43820;BME280;67762;52.476;6.046;2023-04-05T04:32:15;102405.09;;;-1.93;77.34
43820;BME280;67762;52.476;6.046;2023-04-05T04:35:11;102414.84;;;-1.98;77.39
43820;BME280;67762;52.476;6.046;2023-04-05T04:38:01;102417.56;;;-2.01;77.52
43820;BME280;67762;52.476;6.046;2023-04-05T04:40:53;102407.97;;;-2.01;77.67
43820;BME280;67762;52.476;6.046;2023-04-05T04:43:44;102411.44;;;-2.00;77.02
43820;BME280;67762;52.476;6.046;2023-04-05T04:46:36;102405.25;;;-1.98;77.59
43820;BME280;67762;52.476;6.046;2023-04-05T04:49:14;102407.97;;;-2.01;77.62
43820;BME280;67762;52.476;6.046;2023-04-05T04:51:45;102417.75;;;-2.07;77.88
43820;BME280;67762;52.476;6.046;2023-04-05T04:54:11;102406.72;;;-2.17;77.34
43820;BME280;67762;52.476;6.046;2023-04-05T04:56:37;102406.16;;;-2.28;77.28
43820;BME280;67762;52.476;6.046;2023-04-05T04:59:03;102402.84;;;-2.34;77.26
43820;BME280;67762;52.476;6.046;2023-04-05T05:01:29;102406.34;;;-2.36;77.67
43820;BME280;67762;52.476;6.046;2023-04-05T05:03:55;102406.44;;;-2.39;77.46
43820;BME280;67762;52.476;6.046;2023-04-05T05:06:30;102409.91;;;-2.38;77.64
43820;BME280;67762;52.476;6.046;2023-04-05T05:08:55;102409.06;;;-2.39;77.70
43820;BME280;67762;52.476;6.046;2023-04-05T05:11:22;102406.41;;;-2.37;77.81
43820;BME280;67762;52.476;6.046;2023-04-05T05:13:47;102400.16;;;-2.31;78.07
43820;BME280;67762;52.476;6.046;2023-04-05T05:16:21;102410.22;;;-2.18;77.85
43820;BME280;67762;52.476;6.046;2023-04-05T05:18:51;102412.59;;;-2.10;78.01
43820;BME280;67762;52.476;6.046;2023-04-05T05:21:17;102414.22;;;-2.06;78.34
43820;BME280;67762;52.476;6.046;2023-04-05T05:23:50;102409.63;;;-1.98;78.16
43820;BME280;67762;52.476;6.046;2023-04-05T05:26:18;102411.03;;;-1.87;78.51
43820;BME280;67762;52.476;6.046;2023-04-05T05:28:43;102406.94;;;-1.67;78.53
43820;BME280;67762;52.476;6.046;2023-04-05T05:31:10;102410.44;;;-1.41;78.90
43820;BME280;67762;52.476;6.046;2023-04-05T05:33:37;102404.16;;;-1.09;79.51
43820;BME280;67762;52.476;6.046;2023-04-05T05:36:03;102401.91;;;-0.70;79.38
43820;BME280;67762;52.476;6.046;2023-04-05T05:38:29;102397.72;;;-0.28;79.46
43820;BME280;67762;52.476;6.046;2023-04-05T05:40:55;102404.84;;;0.15;79.68
43820;BME280;67762;52.476;6.046;2023-04-05T05:43:22;102398.00;;;0.54;79.63
43820;BME280;67762;52.476;6.046;2023-04-05T05:46:12;102405.03;;;0.96;79.56
43820;BME280;67762;52.476;6.046;2023-04-05T05:48:38;102399.06;;;1.33;79.11
43820;BME280;67762;52.476;6.046;2023-04-05T05:51:08;102402.75;;;1.67;78.81
43820;BME280;67762;52.476;6.046;2023-04-05T05:53:38;102401.03;;;2.05;78.38
43820;BME280;67762;52.476;6.046;2023-04-05T05:56:06;102404.75;;;2.37;78.62
43820;BME280;67762;52.476;6.046;2023-04-05T05:58:35;102394.59;;;2.65;77.73
43820;BME280;67762;52.476;6.046;2023-04-05T06:01:02;102392.44;;;2.90;78.32
43820;BME280;67762;52.476;6.046;2023-04-05T06:03:29;102400.13;;;3.12;78.11
43820;BME280;67762;52.476;6.046;2023-04-05T06:06:23;102393.56;;;3.36;77.60
43820;BME280;67762;52.476;6.046;2023-04-05T06:08:55;102393.31;;;3.58;77.11
43820;BME280;67762;52.476;6.046;2023-04-05T06:11:21;102401.88;;;3.79;77.26
43820;BME280;67762;52.476;6.046;2023-04-05T06:14:19;102401.91;;;4.10;76.55
43820;BME280;67762;52.476;6.046;2023-04-05T06:16:50;102397.03;;;4.34;76.23
43820;BME280;67762;52.476;6.046;2023-04-05T06:24:56;102413.63;;;4.83;75.74
43820;BME280;67762;52.476;6.046;2023-04-05T06:27:49;102409.66;;;5.19;75.15
43820;BME280;67762;52.476;6.046;2023-04-05T06:30:15;102413.97;;;5.50;74.73
43820;BME280;67762;52.476;6.046;2023-04-05T06:32:42;102411.63;;;5.74;74.44
43820;BME280;67762;52.476;6.046;2023-04-05T06:35:08;102416.00;;;5.89;73.30
43820;BME280;67762;52.476;6.046;2023-04-05T06:37:34;102410.41;;;6.08;72.76
43820;BME280;67762;52.476;6.046;2023-04-05T06:40:00;102406.34;;;6.16;72.05
43820;BME280;67762;52.476;6.046;2023-04-05T06:42:28;102413.69;;;6.25;71.84
43820;BME280;67762;52.476;6.046;2023-04-05T06:44:58;102407.13;;;6.31;70.70
43820;BME280;67762;52.476;6.046;2023-04-05T06:47:24;102403.28;;;6.22;69.84
43820;BME280;67762;52.476;6.046;2023-04-05T06:49:49;102410.78;;;6.16;70.01
43820;BME280;67762;52.476;6.046;2023-04-05T06:52:15;102409.63;;;6.20;69.48
43820;BME280;67762;52.476;6.046;2023-04-05T06:54:40;102408.09;;;6.30;69.06
43820;BME280;67762;52.476;6.046;2023-04-05T06:57:06;102415.75;;;6.34;68.28
43820;BME280;67762;52.476;6.046;2023-04-05T06:59:31;102412.72;;;6.40;67.73
43820;BME280;67762;52.476;6.046;2023-04-05T07:01:57;102412.00;;;6.51;67.16
43820;BME280;67762;52.476;6.046;2023-04-05T07:04:23;102405.91;;;6.63;66.21
43820;BME280;67762;52.476;6.046;2023-04-05T07:06:48;102400.56;;;6.77;66.02
43820;BME280;67762;52.476;6.046;2023-04-05T07:09:14;102407.72;;;7.02;65.98
43820;BME280;67762;52.476;6.046;2023-04-05T07:11:40;102410.19;;;7.30;65.06
43820;BME280;67762;52.476;6.046;2023-04-05T07:14:05;102404.69;;;7.46;64.24
43820;BME280;67762;52.476;6.046;2023-04-05T07:16:31;102407.69;;;7.54;63.20
43820;BME280;67762;52.476;6.046;2023-04-05T07:18:56;102408.31;;;7.70;63.73
43820;BME280;67762;52.476;6.046;2023-04-05T07:21:22;102408.28;;;7.95;63.39
43820;BME280;67762;52.476;6.046;2023-04-05T07:23:48;102407.19;;;8.10;62.05
43820;BME280;67762;52.476;6.046;2023-04-05T07:26:14;102407.28;;;8.21;62.00
43820;BME280;67762;52.476;6.046;2023-04-05T07:28:39;102406.38;;;8.46;61.97
43820;BME280;67762;52.476;6.046;2023-04-05T07:31:06;102402.13;;;8.67;61.53
43820;BME280;67762;52.476;6.046;2023-04-05T07:33:31;102405.97;;;8.87;60.43
43820;BME280;67762;52.476;6.046;2023-04-05T07:35:57;102407.63;;;8.77;59.95
43820;BME280;67762;52.476;6.046;2023-04-05T07:38:23;102409.44;;;8.76;59.19
43820;BME280;67762;52.476;6.046;2023-04-05T07:40:49;102403.66;;;8.82;59.23
43820;BME280;67762;52.476;6.046;2023-04-05T07:43:15;102403.47;;;8.97;59.36
43820;BME280;67762;52.476;6.046;2023-04-05T07:45:41;102407.47;;;9.37;58.80
43820;BME280;67762;52.476;6.046;2023-04-05T07:48:06;102400.81;;;9.54;58.56
43820;BME280;67762;52.476;6.046;2023-04-05T07:50:33;102405.47;;;9.74;57.56
43820;BME280;67762;52.476;6.046;2023-04-05T07:53:01;102402.03;;;9.72;57.22
43820;BME280;67762;52.476;6.046;2023-04-05T07:55:26;102407.28;;;9.84;56.71
43820;BME280;67762;52.476;6.046;2023-04-05T07:57:52;102404.59;;;10.07;55.97
43820;BME280;67762;52.476;6.046;2023-04-05T08:00:19;102396.47;;;10.30;55.36
43820;BME280;67762;52.476;6.046;2023-04-05T08:02:44;102393.28;;;10.47;55.16
43820;BME280;67762;52.476;6.046;2023-04-05T08:05:10;102392.13;;;10.61;54.20
43820;BME280;67762;52.476;6.046;2023-04-05T08:07:36;102401.38;;;10.57;53.52
43820;BME280;67762;52.476;6.046;2023-04-05T08:10:02;102393.84;;;10.62;52.85
43820;BME280;67762;52.476;6.046;2023-04-05T08:12:29;102397.94;;;10.77;52.23
43820;BME280;67762;52.476;6.046;2023-04-05T08:14:56;102392.50;;;10.99;51.35
43820;BME280;67762;52.476;6.046;2023-04-05T08:17:21;102392.03;;;11.15;50.46
43820;BME280;67762;52.476;6.046;2023-04-05T08:19:48;102392.44;;;11.10;49.14
43820;BME280;67762;52.476;6.046;2023-04-05T08:22:13;102391.94;;;11.05;48.24
43820;BME280;67762;52.476;6.046;2023-04-05T08:24:41;102387.53;;;11.15;48.72
43820;BME280;67762;52.476;6.046;2023-04-05T08:27:06;102390.84;;;11.29;48.48
43820;BME280;67762;52.476;6.046;2023-04-05T08:29:32;102387.53;;;11.36;47.23
43820;BME280;67762;52.476;6.046;2023-04-05T08:31:57;102383.53;;;11.51;46.08
43820;BME280;67762;52.476;6.046;2023-04-05T08:34:23;102379.56;;;11.46;44.49
43820;BME280;67762;52.476;6.046;2023-04-05T08:36:48;102380.56;;;11.24;42.56
43820;BME280;67762;52.476;6.046;2023-04-05T08:39:14;102374.56;;;10.90;42.56
43820;BME280;67762;52.476;6.046;2023-04-05T08:41:42;102371.63;;;10.93;43.39
43820;BME280;67762;52.476;6.046;2023-04-05T08:44:11;102378.78;;;11.13;43.74
43820;BME280;67762;52.476;6.046;2023-04-05T08:46:37;102373.78;;;11.20;43.76
43820;BME280;67762;52.476;6.046;2023-04-05T08:49:04;102371.50;;;11.36;44.42
43820;BME280;67762;52.476;6.046;2023-04-05T08:51:31;102367.94;;;11.56;44.03
43820;BME280;67762;52.476;6.046;2023-04-05T08:53:58;102367.38;;;11.73;44.33
43820;BME280;67762;52.476;6.046;2023-04-05T08:56:28;102363.78;;;11.94;44.61
43820;BME280;67762;52.476;6.046;2023-04-05T09:01:30;102367.66;;;12.10;44.88
43820;BME280;67762;52.476;6.046;2023-04-05T09:04:05;102358.53;;;12.32;43.96
43820;BME280;67762;52.476;6.046;2023-04-05T09:06:31;102365.59;;;12.62;44.37
43820;BME280;67762;52.476;6.046;2023-04-05T09:08:57;102366.47;;;12.91;44.69
43820;BME280;67762;52.476;6.046;2023-04-05T09:11:24;102359.81;;;13.05;42.61
43820;BME280;67762;52.476;6.046;2023-04-05T09:13:50;102367.72;;;13.06;42.34
43820;BME280;67762;52.476;6.046;2023-04-05T09:16:16;102364.94;;;13.08;41.79
43820;BME280;67762;52.476;6.046;2023-04-05T09:18:41;102370.41;;;13.16;41.73
43820;BME280;67762;52.476;6.046;2023-04-05T09:21:07;102362.84;;;13.48;41.11
43820;BME280;67762;52.476;6.046;2023-04-05T09:23:35;102359.63;;;13.44;41.14
43820;BME280;67762;52.476;6.046;2023-04-05T09:26:18;102365.25;;;13.51;40.69
43820;BME280;67762;52.476;6.046;2023-04-05T09:28:44;102355.91;;;13.55;41.00
43820;BME280;67762;52.476;6.046;2023-04-05T09:31:28;102356.16;;;13.71;40.66
43820;BME280;67762;52.476;6.046;2023-04-05T09:33:56;102352.66;;;13.88;40.59
43820;BME280;67762;52.476;6.046;2023-04-05T09:36:22;102352.78;;;14.24;40.12
43820;BME280;67762;52.476;6.046;2023-04-05T09:38:48;102350.00;;;14.16;39.31
43820;BME280;67762;52.476;6.046;2023-04-05T09:41:13;102346.00;;;13.92;39.13
43820;BME280;67762;52.476;6.046;2023-04-05T09:43:40;102348.00;;;13.63;38.57
43820;BME280;67762;52.476;6.046;2023-04-05T09:46:27;102344.28;;;14.01;38.42
43820;BME280;67762;52.476;6.046;2023-04-05T09:48:53;102352.25;;;13.83;36.10
43820;BME280;67762;52.476;6.046;2023-04-05T09:51:19;102350.03;;;13.79;36.47
43820;BME280;67762;52.476;6.046;2023-04-05T09:56:25;102348.41;;;13.59;36.44
43820;BME280;67762;52.476;6.046;2023-04-05T09:58:51;102344.66;;;13.79;36.83
43820;BME280;67762;52.476;6.046;2023-04-05T10:01:18;102346.47;;;13.88;36.87
43820;BME280;67762;52.476;6.046;2023-04-05T10:03:48;102336.44;;;13.90;36.72
43820;BME280;67762;52.476;6.046;2023-04-05T10:06:17;102333.28;;;13.94;36.76
43820;BME280;67762;52.476;6.046;2023-04-05T10:08:46;102332.00;;;13.98;36.41
43820;BME280;67762;52.476;6.046;2023-04-05T10:11:11;102323.59;;;13.84;35.92
43820;BME280;67762;52.476;6.046;2023-04-05T10:13:39;102330.69;;;14.02;36.50
43820;BME280;67762;52.476;6.046;2023-04-05T10:16:10;102324.34;;;14.03;36.58
43820;BME280;67762;52.476;6.046;2023-04-05T10:18:49;102327.91;;;13.67;36.03
43820;BME280;67762;52.476;6.046;2023-04-05T10:21:21;102322.63;;;13.85;36.30
43820;BME280;67762;52.476;6.046;2023-04-05T10:23:54;102317.81;;;14.06;36.47
43820;BME280;67762;52.476;6.046;2023-04-05T10:26:35;102312.56;;;13.87;35.81
43820;BME280;67762;52.476;6.046;2023-04-05T10:29:11;102308.19;;;13.86;36.25
43820;BME280;67762;52.476;6.046;2023-04-05T10:31:54;102310.94;;;13.49;36.59
43820;BME280;67762;52.476;6.046;2023-04-05T10:37:02;102303.25;;;13.27;36.94
43820;BME280;67762;52.476;6.046;2023-04-05T10:42:03;102306.38;;;12.74;37.11
43820;BME280;67762;52.476;6.046;2023-04-05T10:44:32;102296.53;;;12.75;36.60
43820;BME280;67762;52.476;6.046;2023-04-05T10:47:02;102297.19;;;13.15;37.15
43820;BME280;67762;52.476;6.046;2023-04-05T10:49:36;102300.72;;;13.53;36.60
43820;BME280;67762;52.476;6.046;2023-04-05T10:52:02;102300.84;;;13.88;35.44
43820;BME280;67762;52.476;6.046;2023-04-05T10:54:31;102292.63;;;13.89;34.79
43820;BME280;67762;52.476;6.046;2023-04-05T10:56:58;102284.47;;;13.91;34.93
43820;BME280;67762;52.476;6.046;2023-04-05T10:59:26;102276.88;;;14.04;35.29
43820;BME280;67762;52.476;6.046;2023-04-05T11:01:53;102278.16;;;14.00;34.42
43820;BME280;67762;52.476;6.046;2023-04-05T11:04:19;102273.69;;;14.18;34.42
43820;BME280;67762;52.476;6.046;2023-04-05T11:06:45;102269.78;;;14.48;34.69
43820;BME280;67762;52.476;6.046;2023-04-05T11:09:18;102273.84;;;14.34;33.20
43820;BME280;67762;52.476;6.046;2023-04-05T11:11:50;102269.59;;;14.14;32.84
43820;BME280;67762;52.476;6.046;2023-04-05T11:16:49;102254.72;;;13.75;32.07
43820;BME280;67762;52.476;6.046;2023-04-05T11:19:19;102255.16;;;13.80;31.99
43820;BME280;67762;52.476;6.046;2023-04-05T11:21:44;102253.38;;;13.88;32.05
43820;BME280;67762;52.476;6.046;2023-04-05T11:24:12;102251.78;;;13.95;31.98
43820;BME280;67762;52.476;6.046;2023-04-05T11:29:05;102252.00;;;13.84;32.60
43820;BME280;67762;52.476;6.046;2023-04-05T11:31:31;102243.81;;;14.03;32.93
43820;BME280;67762;52.476;6.046;2023-04-05T11:34:05;102247.69;;;14.36;32.36
43820;BME280;67762;52.476;6.046;2023-04-05T11:36:37;102249.81;;;14.33;31.97
43820;BME280;67762;52.476;6.046;2023-04-05T11:42:10;102240.75;;;14.16;31.78
43820;BME280;67762;52.476;6.046;2023-04-05T11:44:47;102234.69;;;14.14;31.55
43820;BME280;67762;52.476;6.046;2023-04-05T11:47:17;102233.78;;;13.88;31.76
43820;BME280;67762;52.476;6.046;2023-04-05T11:49:48;102233.81;;;13.78;32.45
43820;BME280;67762;52.476;6.046;2023-04-05T11:52:16;102234.03;;;13.67;32.50
43820;BME280;67762;52.476;6.046;2023-04-05T11:54:44;102223.00;;;13.70;33.05
43820;BME280;67762;52.476;6.046;2023-04-05T11:57:29;102222.41;;;13.76;32.67
43820;BME280;67762;52.476;6.046;2023-04-05T11:59:55;102215.22;;;13.94;33.09
43820;BME280;67762;52.476;6.046;2023-04-05T12:02:21;102221.41;;;13.95;32.18
43820;BME280;67762;52.476;6.046;2023-04-05T12:04:54;102212.81;;;13.91;32.57
43820;BME280;67762;52.476;6.046;2023-04-05T12:07:20;102217.88;;;13.94;31.91
43820;BME280;67762;52.476;6.046;2023-04-05T12:10:05;102215.91;;;13.96;32.20
43820;BME280;67762;52.476;6.046;2023-04-05T12:12:50;102212.81;;;13.74;32.51
43820;BME280;67762;52.476;6.046;2023-04-05T12:15:16;102207.69;;;13.80;32.68
43820;BME280;67762;52.476;6.046;2023-04-05T12:17:47;102204.78;;;14.09;32.36
43820;BME280;67762;52.476;6.046;2023-04-05T12:20:21;102207.31;;;13.93;32.16
43820;BME280;67762;52.476;6.046;2023-04-05T12:22:49;102200.13;;;13.66;31.94
43820;BME280;67762;52.476;6.046;2023-04-05T12:25:16;102199.25;;;13.75;33.10
43820;BME280;67762;52.476;6.046;2023-04-05T12:27:43;102191.28;;;14.01;32.93
43820;BME280;67762;52.476;6.046;2023-04-05T12:30:22;102191.38;;;14.27;32.97
43820;BME280;67762;52.476;6.046;2023-04-05T12:37:42;102177.88;;;14.01;32.15
43820;BME280;67762;52.476;6.046;2023-04-05T12:40:08;102187.69;;;14.10;31.89
43820;BME280;67762;52.476;6.046;2023-04-05T12:42:36;102175.88;;;14.21;31.95
43820;BME280;67762;52.476;6.046;2023-04-05T12:45:04;102178.25;;;14.06;30.94
43820;BME280;67762;52.476;6.046;2023-04-05T12:47:34;102184.47;;;14.24;30.94
43820;BME280;67762;52.476;6.046;2023-04-05T12:50:14;102180.84;;;14.51;30.80
43820;BME280;67762;52.476;6.046;2023-04-05T12:53:00;102176.63;;;14.48;31.60
43820;BME280;67762;52.476;6.046;2023-04-05T12:55:28;102181.53;;;14.79;31.40
43820;BME280;67762;52.476;6.046;2023-04-05T12:57:58;102170.47;;;14.82;31.14
43820;BME280;67762;52.476;6.046;2023-04-05T13:00:27;102167.03;;;14.72;31.12
43820;BME280;67762;52.476;6.046;2023-04-05T13:02:55;102162.31;;;14.66;31.45
43820;BME280;67762;52.476;6.046;2023-04-05T13:05:25;102146.19;;;14.66;30.55
43820;BME280;67762;52.476;6.046;2023-04-05T13:07:52;102157.22;;;14.19;29.91
43820;BME280;67762;52.476;6.046;2023-04-05T13:10:19;102145.38;;;14.04;30.16
43820;BME280;67762;52.476;6.046;2023-04-05T13:12:45;102154.72;;;14.35;30.57
43820;BME280;67762;52.476;6.046;2023-04-05T13:15:11;102149.09;;;14.29;30.37
43820;BME280;67762;52.476;6.046;2023-04-05T13:17:39;102146.53;;;14.45;30.40
43820;BME280;67762;52.476;6.046;2023-04-05T13:20:05;102145.16;;;14.67;30.39
43820;BME280;67762;52.476;6.046;2023-04-05T13:22:31;102155.50;;;15.13;30.47
43820;BME280;67762;52.476;6.046;2023-04-05T13:24:57;102146.03;;;15.43;29.73
43820;BME280;67762;52.476;6.046;2023-04-05T13:27:22;102143.28;;;15.68;29.88
43820;BME280;67762;52.476;6.046;2023-04-05T13:29:48;102133.72;;;15.90;30.95
43820;BME280;67762;52.476;6.046;2023-04-05T13:32:14;102139.25;;;15.97;30.10
43820;BME280;67762;52.476;6.046;2023-04-05T13:34:39;102131.34;;;16.19;30.17
43820;BME280;67762;52.476;6.046;2023-04-05T13:37:05;102124.94;;;16.28;30.01
43820;BME280;67762;52.476;6.046;2023-04-05T13:39:31;102127.47;;;16.14;31.27
43820;BME280;67762;52.476;6.046;2023-04-05T13:41:56;102119.72;;;16.03;30.43
43820;BME280;67762;52.476;6.046;2023-04-05T13:44:22;102123.94;;;16.13;30.82
43820;BME280;67762;52.476;6.046;2023-04-05T13:46:48;102123.44;;;16.18;30.77
43820;BME280;67762;52.476;6.046;2023-04-05T13:49:14;102116.88;;;16.20;30.82
43820;BME280;67762;52.476;6.046;2023-04-05T13:51:39;102117.41;;;16.16;29.98